sensor_id;sensor_type;location;lat;lon;timestamp;P1;durP1;ratioP1;P2;durP2;ratioP2
26574;SDS011;67165;50.256;10.978;2024-03-08T00:01:09;53.90;;;29.08;;
26574;SDS011;67165;50.256;10.978;2024-03-08T00:03:35;57.00;;;28.10;;
26574;SDS011;67165;50.256;10.978;2024-03-08T00:06:01;55.95;;;29.85;;
26574;SDS011;67165;50.256;10.978;2024-03-08T00:08:27;52.90;;;27.45;;
26574;SDS011;67165;50.256;10.978;2024-03-08T00:10:53;50.50;;;28.08;;
26574;SDS011;67165;50.256;10.978;2024-03-08T00:13:19;51.58;;;28.38;;
26574;SDS011;67165;50.256;10.978;2024-03-08T00:15:45;54.55;;;27.83;;
26574;SDS011;67165;50.256;10.978;2024-03-08T00:18:10;55.85;;;28.50;;
26574;SDS011;67165;50.256;10.978;2024-03-08T00:20:36;54.70;;;28.48;;
26574;SDS011;67165;50.256;10.978;2024-03-08T00:23:02;53.00;;;28.55;;
26574;SDS011;67165;50.256;10.978;2024-03-08T00:25:28;57.63;;;29.85;;
26574;SDS011;67165;50.256;10.978;2024-03-08T00:27:54;50.47;;;28.65;;
26574;SDS011;67165;50.256;10.978;2024-03-08T00:30:23;57.53;;;29.17;;
26574;SDS011;67165;50.256;10.978;2024-03-08T00:32:50;54.40;;;28.70;;
26574;SDS011;67165;50.256;10.978;2024-03-08T00:35:16;55.50;;;29.38;;
26574;SDS011;67165;50.256;10.978;2024-03-08T00:37:41;56.97;;;29.08;;
26574;SDS011;67165;50.256;10.978;2024-03-08T00:40:08;55.33;;;30.30;;
26574;SDS011;67165;50.256;10.978;2024-03-08T00:42:36;54.33;;;29.42;;
26574;SDS011;67165;50.256;10.978;2024-03-08T00:45:03;56.67;;;29.13;;
26574;SDS011;67165;50.256;10.978;2024-03-08T00:47:29;58.95;;;31.13;;
26574;SDS011;67165;50.256;10.978;2024-03-08T00:49:55;55.13;;;29.58;;
26574;SDS011;67165;50.256;10.978;2024-03-08T00:52:21;55.70;;;30.08;;
26574;SDS011;67165;50.256;10.978;2024-03-08T00:54:49;54.75;;;29.33;;
26574;SDS011;67165;50.256;10.978;2024-03-08T00:57:15;55.20;;;30.58;;
26574;SDS011;67165;50.256;10.978;2024-03-08T00:59:41;57.55;;;30.67;;
26574;SDS011;67165;50.256;10.978;2024-03-08T01:02:07;60.35;;;30.23;;
26574;SDS011;67165;50.256;10.978;2024-03-08T01:04:34;57.30;;;29.70;;
26574;SDS011;67165;50.256;10.978;2024-03-08T01:07:00;52.78;;;28.45;;
26574;SDS011;67165;50.256;10.978;2024-03-08T01:09:26;57.67;;;29.73;;
26574;SDS011;67165;50.256;10.978;2024-03-08T01:11:52;54.35;;;29.95;;
26574;SDS011;67165;50.256;10.978;2024-03-08T01:14:21;57.08;;;28.80;;
26574;SDS011;67165;50.256;10.978;2024-03-08T01:16:48;56.40;;;30.15;;
26574;SDS011;67165;50.256;10.978;2024-03-08T01:19:14;62.20;;;30.63;;
26574;SDS011;67165;50.256;10.978;2024-03-08T01:21:40;56.45;;;29.65;;
26574;SDS011;67165;50.256;10.978;2024-03-08T01:24:06;60.17;;;29.88;;
26574;SDS011;67165;50.256;10.978;2024-03-08T01:26:32;58.25;;;29.35;;
26574;SDS011;67165;50.256;10.978;2024-03-08T01:29:01;56.25;;;30.23;;
26574;SDS011;67165;50.256;10.978;2024-03-08T01:31:30;60.00;;;30.15;;
26574;SDS011;67165;50.256;10.978;2024-03-08T01:33:59;58.40;;;30.58;;
26574;SDS011;67165;50.256;10.978;2024-03-08T01:36:25;59.25;;;31.00;;
26574;SDS011;67165;50.256;10.978;2024-03-08T01:38:51;60.80;;;30.30;;
26574;SDS011;67165;50.256;10.978;2024-03-08T01:41:17;61.45;;;29.77;;
26574;SDS011;67165;50.256;10.978;2024-03-08T01:43:43;56.22;;;29.23;;
26574;SDS011;67165;50.256;10.978;2024-03-08T01:46:10;56.70;;;30.27;;
26574;SDS011;67165;50.256;10.978;2024-03-08T01:48:40;60.60;;;29.60;;
26574;SDS011;67165;50.256;10.978;2024-03-08T01:51:06;55.72;;;29.90;;
26574;SDS011;67165;50.256;10.978;2024-03-08T01:53:32;58.72;;;31.00;;
26574;SDS011;67165;50.256;10.978;2024-03-08T01:55:59;54.25;;;28.80;;
26574;SDS011;67165;50.256;10.978;2024-03-08T01:58:27;60.47;;;30.73;;
26574;SDS011;67165;50.256;10.978;2024-03-08T02:00:54;61.58;;;31.08;;
26574;SDS011;67165;50.256;10.978;2024-03-08T02:03:23;53.80;;;29.48;;
26574;SDS011;67165;50.256;10.978;2024-03-08T02:05:49;56.03;;;29.70;;
26574;SDS011;67165;50.256;10.978;2024-03-08T02:08:16;56.17;;;29.45;;
26574;SDS011;67165;50.256;10.978;2024-03-08T02:10:44;63.10;;;30.80;;
26574;SDS011;67165;50.256;10.978;2024-03-08T02:13:10;57.08;;;30.85;;
26574;SDS011;67165;50.256;10.978;2024-03-08T02:15:53;59.65;;;31.75;;
26574;SDS011;67165;50.256;10.978;2024-03-08T02:18:20;60.93;;;30.87;;
26574;SDS011;67165;50.256;10.978;2024-03-08T02:20:50;64.20;;;32.47;;
26574;SDS011;67165;50.256;10.978;2024-03-08T02:23:20;60.70;;;31.33;;
26574;SDS011;67165;50.256;10.978;2024-03-08T02:25:46;58.33;;;30.75;;
26574;SDS011;67165;50.256;10.978;2024-03-08T02:28:13;62.97;;;31.25;;
26574;SDS011;67165;50.256;10.978;2024-03-08T02:30:39;60.30;;;31.20;;
26574;SDS011;67165;50.256;10.978;2024-03-08T02:33:05;58.08;;;29.80;;
26574;SDS011;67165;50.256;10.978;2024-03-08T02:35:32;62.20;;;31.45;;
26574;SDS011;67165;50.256;10.978;2024-03-08T02:37:59;57.22;;;31.50;;
26574;SDS011;67165;50.256;10.978;2024-03-08T02:40:25;59.70;;;30.63;;
26574;SDS011;67165;50.256;10.978;2024-03-08T02:42:51;58.95;;;31.25;;
26574;SDS011;67165;50.256;10.978;2024-03-08T02:45:17;62.92;;;31.70;;
26574;SDS011;67165;50.256;10.978;2024-03-08T02:47:43;54.78;;;30.02;;
26574;SDS011;67165;50.256;10.978;2024-03-08T02:50:09;59.53;;;31.02;;
26574;SDS011;67165;50.256;10.978;2024-03-08T02:52:35;62.40;;;30.80;;
26574;SDS011;67165;50.256;10.978;2024-03-08T02:55:04;57.35;;;30.05;;
26574;SDS011;67165;50.256;10.978;2024-03-08T02:57:33;56.88;;;30.25;;
26574;SDS011;67165;50.256;10.978;2024-03-08T02:59:59;56.50;;;30.00;;
26574;SDS011;67165;50.256;10.978;2024-03-08T03:02:24;57.05;;;30.75;;
26574;SDS011;67165;50.256;10.978;2024-03-08T03:04:51;56.13;;;29.50;;
26574;SDS011;67165;50.256;10.978;2024-03-08T03:07:17;57.60;;;30.35;;
26574;SDS011;67165;50.256;10.978;2024-03-08T03:09:44;54.70;;;29.17;;
26574;SDS011;67165;50.256;10.978;2024-03-08T03:12:10;57.90;;;30.33;;
26574;SDS011;67165;50.256;10.978;2024-03-08T03:14:36;56.30;;;30.65;;
26574;SDS011;67165;50.256;10.978;2024-03-08T03:17:05;58.70;;;29.70;;
26574;SDS011;67165;50.256;10.978;2024-03-08T03:19:30;57.83;;;30.23;;
26574;SDS011;67165;50.256;10.978;2024-03-08T03:21:56;58.03;;;29.58;;
26574;SDS011;67165;50.256;10.978;2024-03-08T03:24:22;56.75;;;29.52;;
26574;SDS011;67165;50.256;10.978;2024-03-08T03:26:48;55.55;;;29.48;;
26574;SDS011;67165;50.256;10.978;2024-03-08T03:29:14;55.95;;;28.60;;
26574;SDS011;67165;50.256;10.978;2024-03-08T03:31:41;59.60;;;30.95;;
26574;SDS011;67165;50.256;10.978;2024-03-08T03:34:10;56.25;;;30.33;;
26574;SDS011;67165;50.256;10.978;2024-03-08T03:36:37;56.97;;;29.60;;
26574;SDS011;67165;50.256;10.978;2024-03-08T03:39:07;57.63;;;29.15;;
26574;SDS011;67165;50.256;10.978;2024-03-08T03:41:38;56.03;;;29.40;;
26574;SDS011;67165;50.256;10.978;2024-03-08T03:44:04;55.85;;;28.95;;
26574;SDS011;67165;50.256;10.978;2024-03-08T03:46:34;52.88;;;28.25;;
26574;SDS011;67165;50.256;10.978;2024-03-08T03:49:00;53.55;;;27.95;;
26574;SDS011;67165;50.256;10.978;2024-03-08T03:51:26;52.90;;;27.85;;
26574;SDS011;67165;50.256;10.978;2024-03-08T03:53:52;56.60;;;29.25;;
26574;SDS011;67165;50.256;10.978;2024-03-08T03:56:18;48.67;;;27.38;;
26574;SDS011;67165;50.256;10.978;2024-03-08T03:58:44;50.67;;;26.67;;
26574;SDS011;67165;50.256;10.978;2024-03-08T04:01:10;49.45;;;27.05;;
26574;SDS011;67165;50.256;10.978;2024-03-08T04:03:35;54.90;;;28.10;;
26574;SDS011;67165;50.256;10.978;2024-03-08T04:06:03;54.00;;;27.67;;
26574;SDS011;67165;50.256;10.978;2024-03-08T04:08:29;54.67;;;28.23;;
26574;SDS011;67165;50.256;10.978;2024-03-08T04:10:56;51.03;;;27.92;;
26574;SDS011;67165;50.256;10.978;2024-03-08T04:13:23;50.80;;;27.90;;
26574;SDS011;67165;50.256;10.978;2024-03-08T04:15:49;52.58;;;27.45;;
26574;SDS011;67165;50.256;10.978;2024-03-08T04:18:14;50.95;;;26.92;;
26574;SDS011;67165;50.256;10.978;2024-03-08T04:20:40;56.08;;;25.63;;
26574;SDS011;67165;50.256;10.978;2024-03-08T04:23:06;53.17;;;26.13;;
26574;SDS011;67165;50.256;10.978;2024-03-08T04:25:32;52.70;;;27.63;;
26574;SDS011;67165;50.256;10.978;2024-03-08T04:27:58;50.72;;;27.08;;
26574;SDS011;67165;50.256;10.978;2024-03-08T04:30:24;48.80;;;26.70;;
26574;SDS011;67165;50.256;10.978;2024-03-08T04:32:50;53.45;;;28.10;;
26574;SDS011;67165;50.256;10.978;2024-03-08T04:35:16;52.20;;;27.02;;
26574;SDS011;67165;50.256;10.978;2024-03-08T04:37:41;50.40;;;25.75;;
26574;SDS011;67165;50.256;10.978;2024-03-08T04:40:07;50.58;;;26.50;;
26574;SDS011;67165;50.256;10.978;2024-03-08T04:42:33;52.55;;;27.15;;
26574;SDS011;67165;50.256;10.978;2024-03-08T04:45:02;51.40;;;27.55;;
26574;SDS011;67165;50.256;10.978;2024-03-08T04:47:29;51.10;;;26.05;;
26574;SDS011;67165;50.256;10.978;2024-03-08T04:49:55;48.70;;;27.05;;
26574;SDS011;67165;50.256;10.978;2024-03-08T04:52:22;48.40;;;26.48;;
26574;SDS011;67165;50.256;10.978;2024-03-08T04:54:47;49.05;;;26.83;;
26574;SDS011;67165;50.256;10.978;2024-03-08T04:57:13;49.25;;;27.02;;
26574;SDS011;67165;50.256;10.978;2024-03-08T04:59:39;50.83;;;26.30;;
26574;SDS011;67165;50.256;10.978;2024-03-08T05:02:05;48.78;;;26.20;;
26574;SDS011;67165;50.256;10.978;2024-03-08T05:04:32;49.70;;;27.10;;
26574;SDS011;67165;50.256;10.978;2024-03-08T05:06:58;48.00;;;26.13;;
26574;SDS011;67165;50.256;10.978;2024-03-08T05:09:26;50.50;;;25.42;;
26574;SDS011;67165;50.256;10.978;2024-03-08T05:11:56;53.65;;;26.15;;
26574;SDS011;67165;50.256;10.978;2024-03-08T05:14:24;49.30;;;25.67;;
26574;SDS011;67165;50.256;10.978;2024-03-08T05:16:50;50.38;;;26.58;;
26574;SDS011;67165;50.256;10.978;2024-03-08T05:19:16;51.20;;;27.02;;
26574;SDS011;67165;50.256;10.978;2024-03-08T05:21:43;50.67;;;26.55;;
26574;SDS011;67165;50.256;10.978;2024-03-08T05:24:10;48.45;;;26.17;;
26574;SDS011;67165;50.256;10.978;2024-03-08T05:26:36;52.25;;;26.75;;
26574;SDS011;67165;50.256;10.978;2024-03-08T05:29:04;53.30;;;26.73;;
26574;SDS011;67165;50.256;10.978;2024-03-08T05:31:52;52.08;;;26.60;;
26574;SDS011;67165;50.256;10.978;2024-03-08T05:34:17;50.33;;;26.40;;
26574;SDS011;67165;50.256;10.978;2024-03-08T05:36:44;48.88;;;26.85;;
26574;SDS011;67165;50.256;10.978;2024-03-08T05:39:14;53.22;;;27.45;;
26574;SDS011;67165;50.256;10.978;2024-03-08T05:41:41;53.50;;;27.05;;
26574;SDS011;67165;50.256;10.978;2024-03-08T05:44:07;56.80;;;27.60;;
26574;SDS011;67165;50.256;10.978;2024-03-08T05:46:34;50.85;;;27.48;;
26574;SDS011;67165;50.256;10.978;2024-03-08T05:49:06;52.65;;;28.13;;
26574;SDS011;67165;50.256;10.978;2024-03-08T05:51:35;52.58;;;27.33;;
26574;SDS011;67165;50.256;10.978;2024-03-08T05:54:02;57.67;;;28.00;;
26574;SDS011;67165;50.256;10.978;2024-03-08T05:56:30;58.35;;;27.73;;
26574;SDS011;67165;50.256;10.978;2024-03-08T05:58:56;54.63;;;28.20;;
26574;SDS011;67165;50.256;10.978;2024-03-08T06:01:23;53.83;;;27.58;;
26574;SDS011;67165;50.256;10.978;2024-03-08T06:03:50;53.95;;;28.80;;
26574;SDS011;67165;50.256;10.978;2024-03-08T06:06:15;57.75;;;29.90;;
26574;SDS011;67165;50.256;10.978;2024-03-08T06:08:42;58.40;;;29.20;;
26574;SDS011;67165;50.256;10.978;2024-03-08T06:11:09;58.25;;;29.13;;
26574;SDS011;67165;50.256;10.978;2024-03-08T06:13:35;56.65;;;29.17;;
26574;SDS011;67165;50.256;10.978;2024-03-08T06:16:01;60.60;;;28.95;;
26574;SDS011;67165;50.256;10.978;2024-03-08T06:18:32;58.83;;;29.90;;
26574;SDS011;67165;50.256;10.978;2024-03-08T06:20:59;60.85;;;30.13;;
26574;SDS011;67165;50.256;10.978;2024-03-08T06:23:25;53.63;;;27.52;;
26574;SDS011;67165;50.256;10.978;2024-03-08T06:25:52;58.95;;;30.10;;
26574;SDS011;67165;50.256;10.978;2024-03-08T06:28:19;61.20;;;30.48;;
26574;SDS011;67165;50.256;10.978;2024-03-08T06:30:45;64.55;;;30.35;;
26574;SDS011;67165;50.256;10.978;2024-03-08T06:33:11;58.90;;;28.88;;
26574;SDS011;67165;50.256;10.978;2024-03-08T06:35:36;58.50;;;29.17;;
26574;SDS011;67165;50.256;10.978;2024-03-08T06:38:05;61.83;;;30.35;;
26574;SDS011;67165;50.256;10.978;2024-03-08T06:40:31;60.35;;;31.23;;
26574;SDS011;67165;50.256;10.978;2024-03-08T06:42:57;64.93;;;31.85;;
26574;SDS011;67165;50.256;10.978;2024-03-08T06:45:22;65.78;;;31.58;;
26574;SDS011;67165;50.256;10.978;2024-03-08T06:47:48;56.53;;;28.80;;
26574;SDS011;67165;50.256;10.978;2024-03-08T06:50:14;60.17;;;30.27;;
26574;SDS011;67165;50.256;10.978;2024-03-08T06:52:40;58.42;;;30.05;;
26574;SDS011;67165;50.256;10.978;2024-03-08T06:55:11;59.15;;;30.75;;
26574;SDS011;67165;50.256;10.978;2024-03-08T06:57:40;59.30;;;30.33;;
26574;SDS011;67165;50.256;10.978;2024-03-08T07:00:07;61.05;;;30.40;;
26574;SDS011;67165;50.256;10.978;2024-03-08T07:02:38;63.28;;;30.90;;
26574;SDS011;67165;50.256;10.978;2024-03-08T07:05:05;61.08;;;30.55;;
26574;SDS011;67165;50.256;10.978;2024-03-08T07:07:35;62.40;;;30.85;;
26574;SDS011;67165;50.256;10.978;2024-03-08T07:10:01;64.93;;;30.08;;
26574;SDS011;67165;50.256;10.978;2024-03-08T07:12:27;55.28;;;29.42;;
26574;SDS011;67165;50.256;10.978;2024-03-08T07:14:52;56.80;;;29.08;;
26574;SDS011;67165;50.256;10.978;2024-03-08T07:17:18;54.13;;;28.00;;
26574;SDS011;67165;50.256;10.978;2024-03-08T07:19:44;55.65;;;29.48;;
26574;SDS011;67165;50.256;10.978;2024-03-08T07:22:10;56.35;;;29.15;;
26574;SDS011;67165;50.256;10.978;2024-03-08T07:24:36;53.35;;;28.83;;
26574;SDS011;67165;50.256;10.978;2024-03-08T07:27:02;56.50;;;28.20;;
26574;SDS011;67165;50.256;10.978;2024-03-08T07:29:30;56.00;;;28.55;;
26574;SDS011;67165;50.256;10.978;2024-03-08T07:31:56;55.83;;;28.63;;
26574;SDS011;67165;50.256;10.978;2024-03-08T07:34:28;55.58;;;28.80;;
26574;SDS011;67165;50.256;10.978;2024-03-08T07:36:57;53.35;;;27.40;;
26574;SDS011;67165;50.256;10.978;2024-03-08T07:39:24;51.42;;;26.58;;
26574;SDS011;67165;50.256;10.978;2024-03-08T07:41:50;49.63;;;25.55;;
26574;SDS011;67165;50.256;10.978;2024-03-08T07:44:18;55.05;;;27.67;;
26574;SDS011;67165;50.256;10.978;2024-03-08T07:46:44;52.80;;;26.17;;
26574;SDS011;67165;50.256;10.978;2024-03-08T07:49:10;50.92;;;26.73;;
26574;SDS011;67165;50.256;10.978;2024-03-08T07:51:37;51.35;;;25.80;;
26574;SDS011;67165;50.256;10.978;2024-03-08T07:54:03;54.47;;;26.13;;
26574;SDS011;67165;50.256;10.978;2024-03-08T07:56:29;46.45;;;25.10;;
26574;SDS011;67165;50.256;10.978;2024-03-08T07:58:55;50.08;;;24.80;;
26574;SDS011;67165;50.256;10.978;2024-03-08T08:01:21;45.95;;;23.60;;
26574;SDS011;67165;50.256;10.978;2024-03-08T08:03:47;47.75;;;24.30;;
26574;SDS011;67165;50.256;10.978;2024-03-08T08:06:16;48.67;;;24.90;;
26574;SDS011;67165;50.256;10.978;2024-03-08T08:08:42;46.85;;;24.05;;
26574;SDS011;67165;50.256;10.978;2024-03-08T08:11:08;48.55;;;24.58;;
26574;SDS011;67165;50.256;10.978;2024-03-08T08:13:34;51.97;;;25.50;;
26574;SDS011;67165;50.256;10.978;2024-03-08T08:16:01;46.50;;;23.90;;
26574;SDS011;67165;50.256;10.978;2024-03-08T08:18:28;42.58;;;23.52;;
26574;SDS011;67165;50.256;10.978;2024-03-08T08:20:54;45.50;;;23.42;;
26574;SDS011;67165;50.256;10.978;2024-03-08T08:23:20;44.92;;;22.92;;
26574;SDS011;67165;50.256;10.978;2024-03-08T08:25:47;45.08;;;23.95;;
26574;SDS011;67165;50.256;10.978;2024-03-08T08:28:16;50.40;;;24.63;;
26574;SDS011;67165;50.256;10.978;2024-03-08T08:30:45;44.63;;;23.38;;
26574;SDS011;67165;50.256;10.978;2024-03-08T08:33:11;48.47;;;24.13;;
26574;SDS011;67165;50.256;10.978;2024-03-08T08:35:37;47.13;;;23.67;;
26574;SDS011;67165;50.256;10.978;2024-03-08T08:38:04;46.78;;;24.30;;
26574;SDS011;67165;50.256;10.978;2024-03-08T08:40:30;46.83;;;24.75;;
26574;SDS011;67165;50.256;10.978;2024-03-08T08:42:57;46.83;;;24.33;;
26574;SDS011;67165;50.256;10.978;2024-03-08T08:45:23;47.88;;;25.45;;
26574;SDS011;67165;50.256;10.978;2024-03-08T08:47:49;46.90;;;24.77;;
26574;SDS011;67165;50.256;10.978;2024-03-08T08:50:15;46.70;;;24.33;;
26574;SDS011;67165;50.256;10.978;2024-03-08T08:52:41;47.25;;;23.83;;
26574;SDS011;67165;50.256;10.978;2024-03-08T08:55:10;48.60;;;25.00;;
26574;SDS011;67165;50.256;10.978;2024-03-08T08:57:39;46.47;;;24.55;;
26574;SDS011;67165;50.256;10.978;2024-03-08T09:00:09;45.55;;;23.38;;
26574;SDS011;67165;50.256;10.978;2024-03-08T09:02:40;48.05;;;24.55;;
26574;SDS011;67165;50.256;10.978;2024-03-08T09:05:06;47.53;;;24.20;;
26574;SDS011;67165;50.256;10.978;2024-03-08T09:07:36;43.30;;;23.60;;
26574;SDS011;67165;50.256;10.978;2024-03-08T09:10:02;43.65;;;23.63;;
26574;SDS011;67165;50.256;10.978;2024-03-08T09:12:29;44.97;;;24.20;;
26574;SDS011;67165;50.256;10.978;2024-03-08T09:14:54;48.58;;;24.88;;
26574;SDS011;67165;50.256;10.978;2024-03-08T09:17:20;47.53;;;24.90;;
26574;SDS011;67165;50.256;10.978;2024-03-08T09:19:47;43.35;;;23.58;;
26574;SDS011;67165;50.256;10.978;2024-03-08T09:22:13;41.45;;;22.60;;
26574;SDS011;67165;50.256;10.978;2024-03-08T09:24:38;43.92;;;23.92;;
26574;SDS011;67165;50.256;10.978;2024-03-08T09:27:04;44.55;;;24.27;;
26574;SDS011;67165;50.256;10.978;2024-03-08T09:29:30;44.22;;;23.35;;
26574;SDS011;67165;50.256;10.978;2024-03-08T09:31:56;42.05;;;23.38;;
26574;SDS011;67165;50.256;10.978;2024-03-08T09:34:22;43.50;;;24.13;;
26574;SDS011;67165;50.256;10.978;2024-03-08T09:36:48;40.35;;;22.85;;
26574;SDS011;67165;50.256;10.978;2024-03-08T09:39:15;40.22;;;22.25;;
26574;SDS011;67165;50.256;10.978;2024-03-08T09:41:45;40.63;;;22.65;;
26574;SDS011;67165;50.256;10.978;2024-03-08T09:44:13;42.00;;;22.67;;
26574;SDS011;67165;50.256;10.978;2024-03-08T09:46:39;43.47;;;23.27;;
26574;SDS011;67165;50.256;10.978;2024-03-08T09:49:08;39.38;;;21.98;;
26574;SDS011;67165;50.256;10.978;2024-03-08T09:51:36;44.30;;;23.52;;
26574;SDS011;67165;50.256;10.978;2024-03-08T09:54:05;43.80;;;22.20;;
26574;SDS011;67165;50.256;10.978;2024-03-08T09:56:37;42.30;;;22.63;;
26574;SDS011;67165;50.256;10.978;2024-03-08T09:59:06;39.15;;;21.77;;
26574;SDS011;67165;50.256;10.978;2024-03-08T10:01:50;39.60;;;21.30;;
26574;SDS011;67165;50.256;10.978;2024-03-08T10:04:17;39.47;;;21.95;;
26574;SDS011;67165;50.256;10.978;2024-03-08T10:06:45;40.35;;;21.25;;
26574;SDS011;67165;50.256;10.978;2024-03-08T10:09:12;42.47;;;21.70;;
26574;SDS011;67165;50.256;10.978;2024-03-08T10:11:39;38.92;;;21.52;;
26574;SDS011;67165;50.256;10.978;2024-03-08T10:14:05;39.10;;;20.65;;
26574;SDS011;67165;50.256;10.978;2024-03-08T10:16:34;41.78;;;22.25;;
26574;SDS011;67165;50.256;10.978;2024-03-08T10:19:00;41.15;;;22.13;;
26574;SDS011;67165;50.256;10.978;2024-03-08T10:21:26;40.03;;;22.17;;
26574;SDS011;67165;50.256;10.978;2024-03-08T10:23:52;39.25;;;20.98;;
26574;SDS011;67165;50.256;10.978;2024-03-08T10:26:18;41.72;;;22.25;;
26574;SDS011;67165;50.256;10.978;2024-03-08T10:28:47;36.10;;;21.15;;
26574;SDS011;67165;50.256;10.978;2024-03-08T10:31:14;39.30;;;21.63;;
26574;SDS011;67165;50.256;10.978;2024-03-08T10:33:40;36.47;;;21.15;;
26574;SDS011;67165;50.256;10.978;2024-03-08T10:36:06;37.15;;;20.58;;
26574;SDS011;67165;50.256;10.978;2024-03-08T10:38:37;34.22;;;20.13;;
26574;SDS011;67165;50.256;10.978;2024-03-08T10:41:05;37.65;;;21.13;;
26574;SDS011;67165;50.256;10.978;2024-03-08T10:43:33;36.63;;;20.55;;
26574;SDS011;67165;50.256;10.978;2024-03-08T10:46:36;37.22;;;21.20;;
26574;SDS011;67165;50.256;10.978;2024-03-08T10:49:12;34.00;;;20.50;;
26574;SDS011;67165;50.256;10.978;2024-03-08T10:51:42;36.67;;;20.15;;
26574;SDS011;67165;50.256;10.978;2024-03-08T10:54:09;37.00;;;20.23;;
26574;SDS011;67165;50.256;10.978;2024-03-08T10:56:36;36.28;;;19.65;;
26574;SDS011;67165;50.256;10.978;2024-03-08T10:59:05;36.17;;;20.30;;
26574;SDS011;67165;50.256;10.978;2024-03-08T11:01:33;35.85;;;20.00;;
26574;SDS011;67165;50.256;10.978;2024-03-08T11:03:59;33.60;;;19.48;;
26574;SDS011;67165;50.256;10.978;2024-03-08T11:12:20;38.45;;;19.90;;
26574;SDS011;67165;50.256;10.978;2024-03-08T11:14:50;36.97;;;21.02;;
26574;SDS011;67165;50.256;10.978;2024-03-08T11:19:59;35.83;;;20.50;;
26574;SDS011;67165;50.256;10.978;2024-03-08T11:22:31;39.05;;;20.27;;
26574;SDS011;67165;50.256;10.978;2024-03-08T11:25:08;37.67;;;20.52;;
26574;SDS011;67165;50.256;10.978;2024-03-08T11:27:37;35.78;;;19.83;;
26574;SDS011;67165;50.256;10.978;2024-03-08T11:30:07;36.58;;;20.42;;
26574;SDS011;67165;50.256;10.978;2024-03-08T11:32:37;34.28;;;20.23;;
26574;SDS011;67165;50.256;10.978;2024-03-08T11:35:07;34.70;;;19.65;;
26574;SDS011;67165;50.256;10.978;2024-03-08T11:37:43;34.95;;;19.80;;
26574;SDS011;67165;50.256;10.978;2024-03-08T11:40:13;37.67;;;20.10;;
26574;SDS011;67165;50.256;10.978;2024-03-08T11:42:48;38.08;;;20.13;;
26574;SDS011;67165;50.256;10.978;2024-03-08T11:45:16;34.63;;;19.30;;
26574;SDS011;67165;50.256;10.978;2024-03-08T11:47:43;33.53;;;19.25;;
26574;SDS011;67165;50.256;10.978;2024-03-08T11:50:11;32.47;;;19.92;;
26574;SDS011;67165;50.256;10.978;2024-03-08T11:52:40;32.47;;;19.08;;
26574;SDS011;67165;50.256;10.978;2024-03-08T11:55:08;35.67;;;19.23;;
26574;SDS011;67165;50.256;10.978;2024-03-08T11:57:34;34.25;;;19.42;;
26574;SDS011;67165;50.256;10.978;2024-03-08T11:59:59;32.38;;;18.75;;
26574;SDS011;67165;50.256;10.978;2024-03-08T12:02:31;30.38;;;18.02;;
26574;SDS011;67165;50.256;10.978;2024-03-08T12:05:04;29.95;;;17.65;;
26574;SDS011;67165;50.256;10.978;2024-03-08T12:07:35;33.97;;;18.63;;
26574;SDS011;67165;50.256;10.978;2024-03-08T12:10:22;31.77;;;17.77;;
26574;SDS011;67165;50.256;10.978;2024-03-08T12:12:50;30.02;;;18.13;;
26574;SDS011;67165;50.256;10.978;2024-03-08T12:15:18;35.00;;;18.70;;
26574;SDS011;67165;50.256;10.978;2024-03-08T12:17:46;29.70;;;16.48;;
26574;SDS011;67165;50.256;10.978;2024-03-08T12:20:20;32.38;;;16.95;;
26574;SDS011;67165;50.256;10.978;2024-03-08T12:22:59;28.08;;;16.42;;
26574;SDS011;67165;50.256;10.978;2024-03-08T12:25:30;28.42;;;16.48;;
26574;SDS011;67165;50.256;10.978;2024-03-08T12:28:06;28.88;;;16.90;;
26574;SDS011;67165;50.256;10.978;2024-03-08T12:30:45;27.77;;;16.17;;
26574;SDS011;67165;50.256;10.978;2024-03-08T12:33:19;25.63;;;15.55;;
26574;SDS011;67165;50.256;10.978;2024-03-08T12:35:52;31.13;;;16.00;;
26574;SDS011;67165;50.256;10.978;2024-03-08T12:38:23;25.80;;;15.80;;
26574;SDS011;67165;50.256;10.978;2024-03-08T12:40:57;26.60;;;15.70;;
26574;SDS011;67165;50.256;10.978;2024-03-08T12:43:24;26.55;;;14.73;;
26574;SDS011;67165;50.256;10.978;2024-03-08T12:45:49;26.38;;;15.18;;
26574;SDS011;67165;50.256;10.978;2024-03-08T12:48:16;22.50;;;13.70;;
26574;SDS011;67165;50.256;10.978;2024-03-08T12:50:42;24.27;;;14.60;;
26574;SDS011;67165;50.256;10.978;2024-03-08T12:53:12;26.98;;;14.48;;
26574;SDS011;67165;50.256;10.978;2024-03-08T12:55:39;25.20;;;14.20;;
26574;SDS011;67165;50.256;10.978;2024-03-08T12:58:05;29.13;;;14.63;;
26574;SDS011;67165;50.256;10.978;2024-03-08T13:00:33;21.83;;;12.93;;
26574;SDS011;67165;50.256;10.978;2024-03-08T13:03:01;25.95;;;14.52;;
26574;SDS011;67165;50.256;10.978;2024-03-08T13:05:28;21.40;;;13.20;;
26574;SDS011;67165;50.256;10.978;2024-03-08T13:07:55;21.65;;;12.95;;
26574;SDS011;67165;50.256;10.978;2024-03-08T13:10:22;21.35;;;13.43;;
26574;SDS011;67165;50.256;10.978;2024-03-08T13:12:47;26.33;;;13.88;;
26574;SDS011;67165;50.256;10.978;2024-03-08T13:15:13;22.10;;;13.20;;
26574;SDS011;67165;50.256;10.978;2024-03-08T13:17:46;22.17;;;13.27;;
26574;SDS011;67165;50.256;10.978;2024-03-08T13:20:13;23.52;;;12.50;;
26574;SDS011;67165;50.256;10.978;2024-03-08T13:22:44;22.02;;;12.75;;
26574;SDS011;67165;50.256;10.978;2024-03-08T13:25:11;20.92;;;12.75;;
26574;SDS011;67165;50.256;10.978;2024-03-08T13:27:42;19.73;;;12.40;;
26574;SDS011;67165;50.256;10.978;2024-03-08T13:30:08;19.75;;;11.95;;
26574;SDS011;67165;50.256;10.978;2024-03-08T13:32:43;19.35;;;11.10;;
26574;SDS011;67165;50.256;10.978;2024-03-08T13:35:12;20.52;;;12.07;;
26574;SDS011;67165;50.256;10.978;2024-03-08T13:37:39;19.23;;;12.00;;
26574;SDS011;67165;50.256;10.978;2024-03-08T13:40:06;18.58;;;11.50;;
26574;SDS011;67165;50.256;10.978;2024-03-08T13:42:38;20.35;;;11.35;;
26574;SDS011;67165;50.256;10.978;2024-03-08T13:45:08;20.08;;;10.95;;
26574;SDS011;67165;50.256;10.978;2024-03-08T13:47:40;15.73;;;10.18;;
26574;SDS011;67165;50.256;10.978;2024-03-08T13:50:07;14.95;;;9.50;;
26574;SDS011;67165;50.256;10.978;2024-03-08T13:52:37;13.57;;;9.13;;
26574;SDS011;67165;50.256;10.978;2024-03-08T13:55:03;16.00;;;8.82;;
26574;SDS011;67165;50.256;10.978;2024-03-08T13:57:30;14.60;;;9.10;;
26574;SDS011;67165;50.256;10.978;2024-03-08T13:59:57;16.55;;;9.88;;
26574;SDS011;67165;50.256;10.978;2024-03-08T14:02:23;15.82;;;9.63;;
26574;SDS011;67165;50.256;10.978;2024-03-08T14:04:53;14.20;;;9.05;;
26574;SDS011;67165;50.256;10.978;2024-03-08T14:07:20;16.80;;;9.50;;
26574;SDS011;67165;50.256;10.978;2024-03-08T14:09:46;15.07;;;9.38;;
26574;SDS011;67165;50.256;10.978;2024-03-08T14:12:11;13.57;;;8.48;;
26574;SDS011;67165;50.256;10.978;2024-03-08T14:14:38;13.70;;;9.25;;
26574;SDS011;67165;50.256;10.978;2024-03-08T14:17:07;13.38;;;8.63;;
26574;SDS011;67165;50.256;10.978;2024-03-08T14:19:35;17.45;;;9.38;;